createdAt,value
2022-11-10T00:02:06.519Z,15.39
2022-11-10T00:07:09.509Z,15.39
2022-11-10T00:12:12.958Z,15.53
2022-11-10T00:17:15.950Z,14.51
2022-11-10T00:22:18.849Z,14.14
2022-11-10T00:27:21.756Z,14.70
2022-11-10T00:32:24.662Z,15.06
2022-11-10T00:37:27.569Z,14.99
2022-11-10T00:42:30.472Z,15.28
2022-11-10T00:47:33.476Z,15.07
2022-11-10T00:52:36.381Z,15.09
2022-11-10T00:57:39.383Z,15.06
2022-11-10T01:02:42.209Z,15.22
2022-11-10T01:07:45.198Z,15.18
2022-11-10T01:12:48.101Z,15.33
2022-11-10T01:17:51.918Z,15.45
2022-11-10T01:22:54.827Z,15.43
2022-11-10T01:27:57.732Z,15.42
2022-11-10T01:33:00.637Z,15.31
2022-11-10T01:38:03.649Z,15.22
2022-11-10T01:43:06.551Z,15.16
2022-11-10T01:48:14.884Z,15.36
2022-11-10T01:53:23.415Z,15.26
2022-11-10T01:58:32.259Z,15.43
2022-11-10T02:03:51.662Z,15.62
2022-11-10T02:08:56.915Z,14.75
2022-11-10T02:14:01.000Z,13.57
2022-11-10T02:19:24.631Z,14.44
2022-11-10T02:24:27.534Z,14.96
2022-11-10T02:29:30.443Z,15.21
2022-11-10T02:34:33.342Z,15.40
2022-11-10T02:39:37.398Z,15.43
2022-11-10T02:44:40.797Z,15.44
2022-11-10T02:49:45.231Z,15.25
2022-11-10T02:54:48.135Z,15.28
2022-11-10T02:59:51.039Z,15.31
2022-11-10T03:04:53.942Z,15.22
2022-11-10T03:09:57.255Z,15.09
2022-11-10T03:15:00.163Z,15.09
2022-11-10T03:20:03.371Z,15.10
2022-11-10T03:25:07.121Z,15.15
2022-11-10T03:30:10.659Z,15.08
2022-11-10T03:35:13.519Z,14.90
2022-11-10T03:40:16.630Z,14.97
2022-11-10T03:45:19.735Z,15.13
2022-11-10T03:50:22.742Z,15.29
2022-11-10T03:55:25.607Z,15.23
2022-11-10T04:00:29.471Z,15.26
2022-11-10T04:05:51.116Z,15.13
2022-11-10T04:10:54.021Z,15.03
2022-11-10T04:15:57.387Z,15.18
2022-11-10T04:21:02.695Z,15.19
2022-11-10T04:26:29.563Z,15.24
2022-11-10T04:31:34.411Z,15.30
2022-11-10T04:36:39.364Z,14.93
2022-11-10T04:41:42.376Z,15.18
2022-11-10T04:46:45.690Z,15.08
2022-11-10T04:51:48.588Z,15.28
2022-11-10T04:56:51.601Z,15.34
2022-11-10T05:01:55.837Z,14.94
2022-11-10T05:06:58.769Z,13.39
2022-11-10T05:12:01.643Z,13.91
2022-11-10T05:17:04.955Z,14.54
2022-11-10T05:22:07.859Z,14.90
2022-11-10T05:27:10.868Z,15.08
2022-11-10T05:32:14.142Z,15.29
2022-11-10T05:37:17.085Z,14.78
2022-11-10T05:42:20.089Z,13.56
2022-11-10T05:47:22.993Z,14.26
2022-11-10T05:52:25.797Z,14.62
2022-11-10T05:57:28.807Z,14.94
2022-11-10T06:02:32.119Z,15.12
2022-11-10T06:07:35.123Z,15.29
2022-11-10T06:12:38.030Z,14.96
2022-11-10T06:17:41.685Z,13.12
2022-11-10T06:22:46.908Z,13.15
2022-11-10T06:27:49.812Z,14.22
2022-11-10T06:32:52.922Z,14.59
2022-11-10T06:38:01.898Z,14.76
2022-11-10T06:43:04.872Z,14.69
2022-11-10T06:48:13.955Z,14.86
2022-11-10T06:53:18.435Z,14.91
2022-11-10T06:58:23.621Z,15.02
2022-11-10T07:03:26.731Z,15.14
2022-11-10T07:08:30.429Z,15.31
2022-11-10T07:13:33.672Z,15.21
2022-11-10T07:18:37.140Z,15.35
2022-11-10T07:23:40.087Z,15.40
2022-11-10T07:28:42.991Z,15.30
2022-11-10T07:33:53.325Z,15.32
2022-11-10T07:38:57.410Z,15.48
2022-11-10T07:44:00.304Z,15.66
2022-11-10T07:49:03.313Z,15.87
2022-11-10T07:54:06.226Z,16.03
2022-11-10T07:59:09.119Z,15.51
2022-11-10T08:04:12.026Z,14.85
2022-11-10T08:09:14.930Z,15.88
2022-11-10T08:14:18.251Z,15.98
2022-11-10T08:19:21.146Z,16.05
2022-11-10T08:24:24.052Z,15.84
2022-11-10T08:29:27.585Z,14.47
2022-11-10T08:34:30.448Z,15.47
2022-11-10T08:39:40.298Z,16.52
2022-11-10T08:44:43.244Z,17.83
2022-11-10T08:49:46.048Z,17.69
2022-11-10T08:54:48.893Z,16.30
2022-11-10T08:59:51.955Z,16.87
2022-11-10T09:04:54.907Z,16.24
2022-11-10T09:10:06.676Z,14.44
2022-11-10T09:15:11.730Z,15.06
2022-11-10T09:20:14.704Z,16.24
2022-11-10T09:25:18.154Z,17.25
2022-11-10T09:30:21.265Z,16.70
2022-11-10T09:35:25.437Z,17.81
2022-11-10T09:40:51.135Z,17.12
2022-11-10T09:45:58.034Z,15.42
2022-11-10T09:51:09.435Z,16.27
2022-11-10T09:56:19.513Z,17.39
2022-11-10T10:01:30.170Z,15.88
2022-11-10T10:07:04.957Z,15.00
2022-11-10T10:12:43.080Z,16.47
2022-11-10T10:17:52.337Z,16.36
2022-11-10T10:23:01.376Z,14.92
2022-11-10T10:28:19.740Z,15.44
2022-11-10T10:33:23.673Z,16.24
2022-11-10T10:38:33.845Z,14.71
2022-11-10T10:43:37.158Z,15.39
2022-11-10T10:48:40.067Z,16.25
2022-11-10T10:53:48.147Z,14.96
2022-11-10T10:58:57.031Z,14.75
2022-11-10T11:04:01.704Z,16.25
2022-11-10T11:09:15.750Z,15.71
2022-11-10T11:14:21.968Z,14.45
2022-11-10T11:19:36.808Z,15.54
2022-11-10T11:24:43.606Z,16.57
2022-11-10T11:30:12.631Z,15.32
2022-11-10T11:35:31.725Z,14.90
2022-11-10T11:40:40.754Z,15.97
2022-11-10T11:45:59.939Z,14.83
2022-11-10T11:51:13.372Z,14.78
2022-11-10T11:56:27.254Z,15.84
2022-11-10T12:02:02.948Z,14.71
2022-11-10T12:07:19.479Z,15.33
2022-11-10T12:12:25.525Z,15.61
2022-11-10T12:17:37.645Z,14.30
2022-11-10T12:23:12.241Z,14.95
2022-11-10T12:28:25.840Z,15.55
2022-11-10T12:33:51.187Z,14.22
2022-11-10T12:39:25.313Z,14.98
2022-11-10T12:44:40.096Z,15.21
2022-11-10T12:49:57.440Z,13.99
2022-11-10T12:55:00.856Z,15.06
2022-11-10T13:00:19.328Z,15.39
2022-11-10T13:05:42.910Z,13.85
2022-11-10T13:11:00.770Z,14.82
2022-11-10T13:16:03.774Z,15.45
2022-11-10T13:21:06.783Z,15.94
2022-11-10T13:26:12.148Z,15.80
2022-11-10T13:31:27.542Z,14.14
2022-11-10T13:36:43.538Z,14.38
2022-11-10T13:41:47.280Z,15.50
2022-11-10T13:47:08.520Z,16.13
2022-11-10T13:52:25.345Z,16.49
2022-11-10T13:57:38.894Z,16.51
2022-11-10T14:02:52.691Z,14.74
2022-11-10T14:08:17.887Z,14.18
2022-11-10T14:13:26.120Z,15.80
2022-11-10T14:18:39.666Z,16.53
2022-11-10T14:24:07.451Z,16.55
2022-11-10T14:29:38.821Z,14.74
2022-11-10T14:34:50.847Z,14.47
2022-11-10T14:39:59.378Z,15.82
2022-11-10T14:45:15.220Z,16.36
2022-11-10T14:50:22.188Z,16.20
2022-11-10T14:55:35.160Z,14.43
2022-11-10T15:00:40.690Z,14.27
2022-11-10T15:05:44.717Z,15.29
2022-11-10T15:10:50.799Z,15.77
2022-11-10T15:16:34.253Z,15.35
2022-11-10T15:21:37.381Z,13.63
2022-11-10T15:26:41.614Z,14.48
2022-11-10T15:31:44.707Z,15.03
2022-11-10T15:36:47.616Z,15.28
2022-11-10T15:41:57.187Z,14.25
2022-11-10T15:47:00.076Z,13.27
2022-11-10T15:52:23.054Z,14.26
2022-11-10T15:57:26.084Z,14.86
2022-11-10T16:02:28.962Z,15.14
2022-11-10T16:07:31.867Z,15.35
2022-11-10T16:12:35.381Z,14.18
2022-11-10T16:17:38.393Z,13.10
2022-11-10T16:22:41.295Z,14.12
2022-11-10T16:27:44.200Z,14.66
2022-11-10T16:32:47.104Z,14.88
2022-11-10T16:37:50.211Z,15.11
2022-11-10T16:42:53.121Z,14.80
2022-11-10T16:47:56.434Z,12.94
2022-11-10T16:53:03.223Z,12.89
2022-11-10T16:58:06.745Z,14.00
2022-11-10T17:03:29.922Z,14.41
2022-11-10T17:08:35.722Z,14.72
2022-11-10T17:13:38.804Z,14.79
2022-11-10T17:18:41.706Z,14.01
2022-11-10T17:23:44.641Z,12.98
2022-11-10T17:28:47.826Z,14.05
2022-11-10T17:33:50.727Z,14.71
2022-11-10T17:38:53.836Z,14.78
2022-11-10T17:43:57.161Z,14.82
2022-11-10T17:49:02.884Z,14.31
2022-11-10T17:54:12.891Z,12.82
2022-11-10T17:59:15.913Z,13.75
2022-11-10T18:04:18.908Z,14.26
2022-11-10T18:09:21.808Z,14.51
2022-11-10T18:14:24.610Z,14.55
2022-11-10T18:19:27.515Z,14.67
2022-11-10T18:24:30.623Z,14.60
2022-11-10T18:29:33.527Z,14.56
2022-11-10T18:34:36.436Z,13.49
2022-11-10T18:39:39.336Z,12.55
2022-11-10T18:44:42.238Z,13.55
2022-11-10T18:49:45.180Z,14.03
2022-11-10T18:54:48.153Z,14.28
2022-11-10T18:59:51.712Z,14.37
2022-11-10T19:04:55.086Z,14.36
2022-11-10T19:09:58.302Z,14.40
2022-11-10T19:15:01.200Z,14.58
2022-11-10T19:20:05.540Z,14.11
2022-11-10T19:25:09.293Z,12.08
2022-11-10T19:30:13.565Z,12.32
2022-11-10T19:35:16.711Z,13.28
2022-11-10T19:40:20.400Z,13.83
2022-11-10T19:45:23.382Z,14.09
2022-11-10T19:50:26.243Z,13.47
2022-11-10T19:55:32.423Z,11.83
2022-11-10T20:00:35.327Z,12.77
2022-11-10T20:05:39.952Z,13.47
2022-11-10T20:10:44.651Z,13.75
2022-11-10T20:15:47.519Z,13.86
2022-11-10T20:20:50.421Z,13.99
2022-11-10T20:26:23.740Z,13.74
2022-11-10T20:31:26.850Z,11.62
2022-11-10T20:36:31.630Z,11.68
2022-11-10T20:41:34.605Z,12.61
2022-11-10T20:46:53.926Z,13.14
2022-11-10T20:51:59.976Z,13.44
2022-11-10T20:57:02.876Z,13.60
2022-11-10T21:02:06.019Z,13.68
2022-11-10T21:07:09.064Z,13.64
2022-11-10T21:12:32.074Z,13.61
2022-11-10T21:17:34.972Z,13.55
2022-11-10T21:22:38.187Z,13.48
2022-11-10T21:27:41.088Z,13.51
2022-11-10T21:32:43.888Z,13.42
2022-11-10T21:37:46.997Z,13.38
2022-11-10T21:42:54.303Z,13.60
2022-11-10T21:48:01.714Z,13.58
2022-11-10T21:53:08.388Z,13.66
2022-11-10T21:58:11.311Z,13.66
2022-11-10T22:03:14.215Z,13.64
2022-11-10T22:08:20.934Z,13.60
2022-11-10T22:13:43.473Z,13.55
2022-11-10T22:18:47.232Z,13.60
2022-11-10T22:24:08.635Z,13.64
2022-11-10T22:29:11.747Z,13.67
2022-11-10T22:34:15.609Z,13.52
2022-11-10T22:39:19.200Z,11.83
2022-11-10T22:44:25.142Z,12.08
2022-11-10T22:49:28.282Z,12.76
2022-11-10T22:54:31.184Z,13.03
2022-11-10T22:59:34.087Z,13.18
2022-11-10T23:04:36.991Z,13.24
2022-11-10T23:09:40.608Z,13.25
2022-11-10T23:14:43.513Z,13.24
2022-11-10T23:19:46.826Z,13.13
2022-11-10T23:24:54.241Z,13.18
2022-11-10T23:29:58.886Z,13.40
2022-11-10T23:35:02.303Z,13.46
2022-11-10T23:40:06.225Z,13.47
2022-11-10T23:45:09.916Z,13.46
2022-11-10T23:50:12.853Z,13.43
2022-11-10T23:55:15.757Z,13.39
